sensor_id;sensor_type;location;lat;lon;timestamp;P1;durP1;ratioP1;P2;durP2;ratioP2
21624;SDS011;10974;51.034;3.744;2022-08-16T00:00:37;14.67;;;13.37;;
21624;SDS011;10974;51.034;3.744;2022-08-16T00:03:05;15.07;;;13.57;;
21624;SDS011;10974;51.034;3.744;2022-08-16T00:05:31;15.13;;;13.67;;
21624;SDS011;10974;51.034;3.744;2022-08-16T00:07:57;14.73;;;13.20;;
21624;SDS011;10974;51.034;3.744;2022-08-16T00:10:24;14.87;;;13.37;;
21624;SDS011;10974;51.034;3.744;2022-08-16T00:12:52;16.80;;;14.70;;
21624;SDS011;10974;51.034;3.744;2022-08-16T00:15:20;17.10;;;13.67;;
21624;SDS011;10974;51.034;3.744;2022-08-16T00:18:00;14.97;;;13.47;;
21624;SDS011;10974;51.034;3.744;2022-08-16T00:20:27;13.93;;;12.60;;
21624;SDS011;10974;51.034;3.744;2022-08-16T00:22:52;16.50;;;15.00;;
21624;SDS011;10974;51.034;3.744;2022-08-16T00:25:19;14.67;;;13.37;;
21624;SDS011;10974;51.034;3.744;2022-08-16T00:27:46;15.70;;;14.37;;
21624;SDS011;10974;51.034;3.744;2022-08-16T00:30:13;15.37;;;13.97;;
21624;SDS011;10974;51.034;3.744;2022-08-16T00:32:40;14.23;;;13.00;;
21624;SDS011;10974;51.034;3.744;2022-08-16T00:35:09;15.93;;;14.43;;
21624;SDS011;10974;51.034;3.744;2022-08-16T00:37:37;14.53;;;13.23;;
21624;SDS011;10974;51.034;3.744;2022-08-16T00:40:03;15.77;;;14.03;;
21624;SDS011;10974;51.034;3.744;2022-08-16T00:42:31;16.47;;;14.80;;
21624;SDS011;10974;51.034;3.744;2022-08-16T00:45:00;17.57;;;15.97;;
21624;SDS011;10974;51.034;3.744;2022-08-16T00:47:31;16.17;;;14.67;;
21624;SDS011;10974;51.034;3.744;2022-08-16T00:49:59;17.97;;;16.07;;
21624;SDS011;10974;51.034;3.744;2022-08-16T00:52:25;15.67;;;14.17;;
21624;SDS011;10974;51.034;3.744;2022-08-16T00:54:50;16.70;;;15.10;;
21624;SDS011;10974;51.034;3.744;2022-08-16T00:57:16;16.77;;;15.17;;
21624;SDS011;10974;51.034;3.744;2022-08-16T00:59:42;14.80;;;13.40;;
21624;SDS011;10974;51.034;3.744;2022-08-16T01:02:09;15.47;;;14.07;;
21624;SDS011;10974;51.034;3.744;2022-08-16T01:04:35;16.33;;;14.70;;
21624;SDS011;10974;51.034;3.744;2022-08-16T01:07:03;16.37;;;14.77;;
21624;SDS011;10974;51.034;3.744;2022-08-16T01:09:31;14.93;;;13.47;;
21624;SDS011;10974;51.034;3.744;2022-08-16T01:12:00;15.80;;;14.30;;
21624;SDS011;10974;51.034;3.744;2022-08-16T01:14:29;16.20;;;14.40;;
21624;SDS011;10974;51.034;3.744;2022-08-16T01:16:59;16.10;;;14.60;;
21624;SDS011;10974;51.034;3.744;2022-08-16T01:19:30;16.07;;;14.53;;
21624;SDS011;10974;51.034;3.744;2022-08-16T01:22:05;17.20;;;15.40;;
21624;SDS011;10974;51.034;3.744;2022-08-16T01:24:44;16.60;;;15.03;;
21624;SDS011;10974;51.034;3.744;2022-08-16T01:27:13;16.40;;;14.90;;
21624;SDS011;10974;51.034;3.744;2022-08-16T01:29:47;16.43;;;14.93;;
21624;SDS011;10974;51.034;3.744;2022-08-16T01:32:23;16.47;;;14.87;;
21624;SDS011;10974;51.034;3.744;2022-08-16T01:34:49;17.03;;;15.40;;
21624;SDS011;10974;51.034;3.744;2022-08-16T01:37:14;16.20;;;14.70;;
21624;SDS011;10974;51.034;3.744;2022-08-16T01:39:40;16.80;;;15.20;;
21624;SDS011;10974;51.034;3.744;2022-08-16T01:42:07;18.80;;;16.90;;
21624;SDS011;10974;51.034;3.744;2022-08-16T01:44:37;17.77;;;16.03;;
21624;SDS011;10974;51.034;3.744;2022-08-16T01:47:03;17.93;;;16.13;;
21624;SDS011;10974;51.034;3.744;2022-08-16T01:49:31;19.00;;;17.00;;
21624;SDS011;10974;51.034;3.744;2022-08-16T01:52:00;17.77;;;16.07;;
21624;SDS011;10974;51.034;3.744;2022-08-16T01:54:29;18.93;;;17.13;;
21624;SDS011;10974;51.034;3.744;2022-08-16T01:56:55;19.13;;;17.23;;
21624;SDS011;10974;51.034;3.744;2022-08-16T01:59:21;19.20;;;16.07;;
21624;SDS011;10974;51.034;3.744;2022-08-16T02:01:47;18.77;;;16.97;;
21624;SDS011;10974;51.034;3.744;2022-08-16T02:04:15;18.13;;;16.43;;
21624;SDS011;10974;51.034;3.744;2022-08-16T02:06:42;18.40;;;16.50;;
21624;SDS011;10974;51.034;3.744;2022-08-16T02:09:08;18.67;;;16.80;;
21624;SDS011;10974;51.034;3.744;2022-08-16T02:11:34;18.10;;;16.40;;
21624;SDS011;10974;51.034;3.744;2022-08-16T02:14:01;19.13;;;17.43;;
21624;SDS011;10974;51.034;3.744;2022-08-16T02:16:27;18.20;;;16.40;;
21624;SDS011;10974;51.034;3.744;2022-08-16T02:18:53;18.40;;;16.70;;
21624;SDS011;10974;51.034;3.744;2022-08-16T02:21:18;18.70;;;16.83;;
21624;SDS011;10974;51.034;3.744;2022-08-16T02:23:44;19.13;;;17.20;;
21624;SDS011;10974;51.034;3.744;2022-08-16T02:26:11;18.70;;;16.90;;
21624;SDS011;10974;51.034;3.744;2022-08-16T02:28:37;18.33;;;16.43;;
21624;SDS011;10974;51.034;3.744;2022-08-16T02:31:05;18.63;;;16.57;;
21624;SDS011;10974;51.034;3.744;2022-08-16T02:33:33;18.50;;;16.77;;
21624;SDS011;10974;51.034;3.744;2022-08-16T02:35:59;20.13;;;18.13;;
21624;SDS011;10974;51.034;3.744;2022-08-16T02:38:25;19.60;;;17.50;;
21624;SDS011;10974;51.034;3.744;2022-08-16T02:40:52;20.17;;;18.27;;
21624;SDS011;10974;51.034;3.744;2022-08-16T02:43:19;19.93;;;18.00;;
21624;SDS011;10974;51.034;3.744;2022-08-16T02:45:44;20.83;;;18.93;;
21624;SDS011;10974;51.034;3.744;2022-08-16T02:48:10;20.90;;;18.90;;
21624;SDS011;10974;51.034;3.744;2022-08-16T02:50:35;19.47;;;17.50;;
21624;SDS011;10974;51.034;3.744;2022-08-16T02:53:01;21.30;;;19.00;;
21624;SDS011;10974;51.034;3.744;2022-08-16T02:55:28;20.13;;;18.10;;
21624;SDS011;10974;51.034;3.744;2022-08-16T02:57:54;20.93;;;18.40;;
21624;SDS011;10974;51.034;3.744;2022-08-16T03:00:19;22.47;;;18.00;;
21624;SDS011;10974;51.034;3.744;2022-08-16T03:02:45;22.30;;;20.07;;
21624;SDS011;10974;51.034;3.744;2022-08-16T03:05:12;20.67;;;18.53;;
21624;SDS011;10974;51.034;3.744;2022-08-16T03:07:39;18.60;;;16.70;;
21624;SDS011;10974;51.034;3.744;2022-08-16T03:10:06;20.73;;;18.70;;
21624;SDS011;10974;51.034;3.744;2022-08-16T03:12:33;18.13;;;16.27;;
21624;SDS011;10974;51.034;3.744;2022-08-16T03:14:59;19.97;;;18.07;;
21624;SDS011;10974;51.034;3.744;2022-08-16T03:17:25;21.43;;;18.33;;
21624;SDS011;10974;51.034;3.744;2022-08-16T03:19:50;19.17;;;17.00;;
21624;SDS011;10974;51.034;3.744;2022-08-16T03:22:18;19.23;;;17.33;;
21624;SDS011;10974;51.034;3.744;2022-08-16T03:24:45;18.57;;;16.80;;
21624;SDS011;10974;51.034;3.744;2022-08-16T03:27:11;18.33;;;16.50;;
21624;SDS011;10974;51.034;3.744;2022-08-16T03:29:37;19.80;;;17.80;;
21624;SDS011;10974;51.034;3.744;2022-08-16T03:32:02;19.03;;;17.00;;
21624;SDS011;10974;51.034;3.744;2022-08-16T03:34:29;18.80;;;16.50;;
21624;SDS011;10974;51.034;3.744;2022-08-16T03:36:55;19.10;;;17.27;;
21624;SDS011;10974;51.034;3.744;2022-08-16T03:39:22;19.70;;;17.70;;
21624;SDS011;10974;51.034;3.744;2022-08-16T03:41:48;18.03;;;16.23;;
21624;SDS011;10974;51.034;3.744;2022-08-16T03:44:14;20.37;;;18.20;;
21624;SDS011;10974;51.034;3.744;2022-08-16T03:46:40;20.17;;;18.20;;
21624;SDS011;10974;51.034;3.744;2022-08-16T03:49:05;19.07;;;17.10;;
21624;SDS011;10974;51.034;3.744;2022-08-16T03:51:36;17.97;;;16.17;;
21624;SDS011;10974;51.034;3.744;2022-08-16T03:54:02;21.17;;;18.90;;
21624;SDS011;10974;51.034;3.744;2022-08-16T03:56:28;19.40;;;17.40;;
21624;SDS011;10974;51.034;3.744;2022-08-16T03:58:55;18.70;;;16.80;;
21624;SDS011;10974;51.034;3.744;2022-08-16T04:01:21;21.10;;;18.90;;
21624;SDS011;10974;51.034;3.744;2022-08-16T04:03:48;20.10;;;18.00;;
21624;SDS011;10974;51.034;3.744;2022-08-16T04:06:14;18.83;;;17.03;;
21624;SDS011;10974;51.034;3.744;2022-08-16T04:08:40;19.73;;;17.93;;
21624;SDS011;10974;51.034;3.744;2022-08-16T04:11:05;19.57;;;17.60;;
21624;SDS011;10974;51.034;3.744;2022-08-16T04:13:31;19.23;;;17.23;;
21624;SDS011;10974;51.034;3.744;2022-08-16T04:15:57;21.50;;;17.77;;
21624;SDS011;10974;51.034;3.744;2022-08-16T04:18:26;18.90;;;17.20;;
21624;SDS011;10974;51.034;3.744;2022-08-16T04:20:52;19.60;;;17.70;;
21624;SDS011;10974;51.034;3.744;2022-08-16T04:23:19;18.60;;;16.80;;
21624;SDS011;10974;51.034;3.744;2022-08-16T04:25:45;18.00;;;16.20;;
21624;SDS011;10974;51.034;3.744;2022-08-16T04:28:11;19.60;;;17.57;;
21624;SDS011;10974;51.034;3.744;2022-08-16T04:30:37;19.67;;;17.77;;
21624;SDS011;10974;51.034;3.744;2022-08-16T04:33:03;17.83;;;16.17;;
21624;SDS011;10974;51.034;3.744;2022-08-16T04:35:29;18.33;;;16.43;;
21624;SDS011;10974;51.034;3.744;2022-08-16T04:37:55;18.93;;;17.13;;
21624;SDS011;10974;51.034;3.744;2022-08-16T04:40:21;20.30;;;18.17;;
21624;SDS011;10974;51.034;3.744;2022-08-16T04:42:49;20.37;;;18.37;;
21624;SDS011;10974;51.034;3.744;2022-08-16T04:45:16;21.13;;;17.80;;
21624;SDS011;10974;51.034;3.744;2022-08-16T04:47:43;19.57;;;17.53;;
21624;SDS011;10974;51.034;3.744;2022-08-16T04:50:11;21.53;;;17.33;;
21624;SDS011;10974;51.034;3.744;2022-08-16T04:52:39;18.67;;;16.67;;
21624;SDS011;10974;51.034;3.744;2022-08-16T04:55:11;18.43;;;16.63;;
21624;SDS011;10974;51.034;3.744;2022-08-16T04:57:39;18.90;;;17.03;;
21624;SDS011;10974;51.034;3.744;2022-08-16T05:00:06;19.23;;;17.47;;
21624;SDS011;10974;51.034;3.744;2022-08-16T05:02:38;18.27;;;16.57;;
21624;SDS011;10974;51.034;3.744;2022-08-16T05:05:04;18.97;;;15.90;;
21624;SDS011;10974;51.034;3.744;2022-08-16T05:07:30;19.50;;;17.30;;
21624;SDS011;10974;51.034;3.744;2022-08-16T05:09:56;18.10;;;16.20;;
21624;SDS011;10974;51.034;3.744;2022-08-16T05:12:22;18.77;;;16.83;;
21624;SDS011;10974;51.034;3.744;2022-08-16T05:14:47;18.80;;;16.30;;
21624;SDS011;10974;51.034;3.744;2022-08-16T05:17:13;18.50;;;16.67;;
21624;SDS011;10974;51.034;3.744;2022-08-16T05:19:39;18.83;;;16.93;;
21624;SDS011;10974;51.034;3.744;2022-08-16T05:22:04;19.40;;;16.40;;
21624;SDS011;10974;51.034;3.744;2022-08-16T05:24:30;21.33;;;17.87;;
21624;SDS011;10974;51.034;3.744;2022-08-16T05:26:56;22.23;;;17.07;;
21624;SDS011;10974;51.034;3.744;2022-08-16T05:29:21;19.87;;;16.67;;
21624;SDS011;10974;51.034;3.744;2022-08-16T05:31:47;19.73;;;15.80;;
21624;SDS011;10974;51.034;3.744;2022-08-16T05:34:12;19.37;;;17.33;;
21624;SDS011;10974;51.034;3.744;2022-08-16T05:36:39;19.80;;;17.70;;
21624;SDS011;10974;51.034;3.744;2022-08-16T05:39:05;19.07;;;17.13;;
21624;SDS011;10974;51.034;3.744;2022-08-16T05:41:32;19.37;;;17.37;;
21624;SDS011;10974;51.034;3.744;2022-08-16T05:43:57;20.80;;;18.40;;
21624;SDS011;10974;51.034;3.744;2022-08-16T05:46:26;19.83;;;17.70;;
21624;SDS011;10974;51.034;3.744;2022-08-16T05:48:52;19.30;;;17.40;;
21624;SDS011;10974;51.034;3.744;2022-08-16T05:51:17;20.60;;;18.43;;
21624;SDS011;10974;51.034;3.744;2022-08-16T05:53:43;20.57;;;18.37;;
21624;SDS011;10974;51.034;3.744;2022-08-16T05:56:09;19.93;;;17.77;;
21624;SDS011;10974;51.034;3.744;2022-08-16T05:58:36;19.83;;;11.63;;
21624;SDS011;10974;51.034;3.744;2022-08-16T06:01:02;21.20;;;10.33;;
21624;SDS011;10974;51.034;3.744;2022-08-16T06:03:28;12.67;;;9.20;;
21624;SDS011;10974;51.034;3.744;2022-08-16T06:05:54;14.90;;;9.13;;
21624;SDS011;10974;51.034;3.744;2022-08-16T06:08:20;11.40;;;7.80;;
21624;SDS011;10974;51.034;3.744;2022-08-16T06:10:45;13.73;;;8.53;;
21624;SDS011;10974;51.034;3.744;2022-08-16T06:13:11;9.50;;;7.77;;
21624;SDS011;10974;51.034;3.744;2022-08-16T06:15:37;11.70;;;7.80;;
21624;SDS011;10974;51.034;3.744;2022-08-16T06:18:03;10.17;;;6.97;;
21624;SDS011;10974;51.034;3.744;2022-08-16T06:20:29;11.77;;;7.73;;
21624;SDS011;10974;51.034;3.744;2022-08-16T06:22:55;8.23;;;6.90;;
21624;SDS011;10974;51.034;3.744;2022-08-16T06:25:26;8.47;;;7.57;;
21624;SDS011;10974;51.034;3.744;2022-08-16T06:27:52;9.90;;;6.70;;
21624;SDS011;10974;51.034;3.744;2022-08-16T06:30:19;9.17;;;7.70;;
21624;SDS011;10974;51.034;3.744;2022-08-16T06:32:45;9.40;;;7.50;;
21624;SDS011;10974;51.034;3.744;2022-08-16T06:35:11;11.20;;;8.50;;
21624;SDS011;10974;51.034;3.744;2022-08-16T06:37:37;10.97;;;8.33;;
21624;SDS011;10974;51.034;3.744;2022-08-16T06:40:05;10.73;;;7.83;;
21624;SDS011;10974;51.034;3.744;2022-08-16T06:42:32;10.13;;;8.30;;
21624;SDS011;10974;51.034;3.744;2022-08-16T06:44:58;9.00;;;7.60;;
21624;SDS011;10974;51.034;3.744;2022-08-16T06:47:24;9.60;;;7.30;;
21624;SDS011;10974;51.034;3.744;2022-08-16T06:49:49;9.40;;;7.90;;
21624;SDS011;10974;51.034;3.744;2022-08-16T06:52:15;7.80;;;6.90;;
21624;SDS011;10974;51.034;3.744;2022-08-16T06:54:41;8.00;;;7.20;;
21624;SDS011;10974;51.034;3.744;2022-08-16T06:57:06;10.00;;;7.00;;
21624;SDS011;10974;51.034;3.744;2022-08-16T06:59:35;9.57;;;6.90;;
21624;SDS011;10974;51.034;3.744;2022-08-16T07:02:03;10.10;;;7.40;;
21624;SDS011;10974;51.034;3.744;2022-08-16T07:04:29;13.33;;;9.00;;
21624;SDS011;10974;51.034;3.744;2022-08-16T07:06:55;9.23;;;7.93;;
21624;SDS011;10974;51.034;3.744;2022-08-16T07:09:21;11.53;;;6.90;;
21624;SDS011;10974;51.034;3.744;2022-08-16T07:11:47;14.60;;;7.90;;
21624;SDS011;10974;51.034;3.744;2022-08-16T07:14:13;13.30;;;7.47;;
21624;SDS011;10974;51.034;3.744;2022-08-16T07:16:39;13.60;;;6.97;;
21624;SDS011;10974;51.034;3.744;2022-08-16T07:19:06;9.27;;;6.53;;
21624;SDS011;10974;51.034;3.744;2022-08-16T07:21:33;7.23;;;6.20;;
21624;SDS011;10974;51.034;3.744;2022-08-16T07:24:01;9.97;;;7.03;;
21624;SDS011;10974;51.034;3.744;2022-08-16T07:26:29;9.93;;;6.10;;
21624;SDS011;10974;51.034;3.744;2022-08-16T07:28:55;8.93;;;5.80;;
21624;SDS011;10974;51.034;3.744;2022-08-16T07:31:21;6.77;;;6.03;;
21624;SDS011;10974;51.034;3.744;2022-08-16T07:33:46;6.80;;;5.63;;
21624;SDS011;10974;51.034;3.744;2022-08-16T07:36:13;16.73;;;7.63;;
21624;SDS011;10974;51.034;3.744;2022-08-16T07:38:39;9.83;;;7.73;;
21624;SDS011;10974;51.034;3.744;2022-08-16T07:41:05;6.70;;;5.87;;
21624;SDS011;10974;51.034;3.744;2022-08-16T07:43:31;10.20;;;5.93;;
21624;SDS011;10974;51.034;3.744;2022-08-16T07:45:57;7.40;;;5.70;;
21624;SDS011;10974;51.034;3.744;2022-08-16T07:48:24;9.73;;;6.00;;
21624;SDS011;10974;51.034;3.744;2022-08-16T07:50:50;14.13;;;7.20;;
21624;SDS011;10974;51.034;3.744;2022-08-16T07:53:17;9.67;;;6.70;;
21624;SDS011;10974;51.034;3.744;2022-08-16T07:55:43;8.50;;;5.80;;
21624;SDS011;10974;51.034;3.744;2022-08-16T07:58:08;8.17;;;5.70;;
21624;SDS011;10974;51.034;3.744;2022-08-16T08:00:34;5.30;;;4.60;;
21624;SDS011;10974;51.034;3.744;2022-08-16T08:03:01;7.97;;;6.30;;
21624;SDS011;10974;51.034;3.744;2022-08-16T08:05:27;6.83;;;6.00;;
21624;SDS011;10974;51.034;3.744;2022-08-16T08:07:53;9.00;;;6.20;;
21624;SDS011;10974;51.034;3.744;2022-08-16T08:10:20;10.17;;;6.03;;
21624;SDS011;10974;51.034;3.744;2022-08-16T08:12:48;8.97;;;5.20;;
21624;SDS011;10974;51.034;3.744;2022-08-16T08:15:18;5.13;;;4.57;;
21624;SDS011;10974;51.034;3.744;2022-08-16T08:17:45;7.67;;;5.03;;
21624;SDS011;10974;51.034;3.744;2022-08-16T08:20:15;10.47;;;5.03;;
21624;SDS011;10974;51.034;3.744;2022-08-16T08:22:42;4.90;;;4.40;;
21624;SDS011;10974;51.034;3.744;2022-08-16T08:25:11;7.13;;;5.60;;
21624;SDS011;10974;51.034;3.744;2022-08-16T08:27:37;5.13;;;4.40;;
21624;SDS011;10974;51.034;3.744;2022-08-16T08:30:04;8.03;;;4.60;;
21624;SDS011;10974;51.034;3.744;2022-08-16T08:32:30;9.13;;;4.90;;
21624;SDS011;10974;51.034;3.744;2022-08-16T08:34:57;6.10;;;5.50;;
21624;SDS011;10974;51.034;3.744;2022-08-16T08:37:24;4.90;;;4.50;;
21624;SDS011;10974;51.034;3.744;2022-08-16T08:39:51;8.10;;;5.07;;
21624;SDS011;10974;51.034;3.744;2022-08-16T08:42:17;6.83;;;5.33;;
21624;SDS011;10974;51.034;3.744;2022-08-16T08:44:43;6.60;;;4.30;;
21624;SDS011;10974;51.034;3.744;2022-08-16T08:47:08;5.30;;;4.80;;
21624;SDS011;10974;51.034;3.744;2022-08-16T08:49:35;6.50;;;5.47;;
21624;SDS011;10974;51.034;3.744;2022-08-16T08:52:03;7.80;;;5.07;;
21624;SDS011;10974;51.034;3.744;2022-08-16T08:54:29;8.83;;;5.00;;
21624;SDS011;10974;51.034;3.744;2022-08-16T08:56:57;5.47;;;4.90;;
21624;SDS011;10974;51.034;3.744;2022-08-16T08:59:23;7.87;;;4.70;;
21624;SDS011;10974;51.034;3.744;2022-08-16T09:01:49;5.70;;;4.70;;
21624;SDS011;10974;51.034;3.744;2022-08-16T09:04:15;8.23;;;4.50;;
21624;SDS011;10974;51.034;3.744;2022-08-16T09:06:41;7.10;;;4.83;;
21624;SDS011;10974;51.034;3.744;2022-08-16T09:09:07;6.43;;;4.73;;
21624;SDS011;10974;51.034;3.744;2022-08-16T09:11:34;5.37;;;4.83;;
21624;SDS011;10974;51.034;3.744;2022-08-16T09:14:01;9.30;;;4.63;;
21624;SDS011;10974;51.034;3.744;2022-08-16T09:16:28;5.57;;;4.57;;
21624;SDS011;10974;51.034;3.744;2022-08-16T09:18:54;6.07;;;5.10;;
21624;SDS011;10974;51.034;3.744;2022-08-16T09:21:20;5.30;;;4.40;;
21624;SDS011;10974;51.034;3.744;2022-08-16T09:23:46;4.20;;;3.80;;
21624;SDS011;10974;51.034;3.744;2022-08-16T09:26:13;5.63;;;4.50;;
21624;SDS011;10974;51.034;3.744;2022-08-16T09:28:42;7.03;;;4.60;;
21624;SDS011;10974;51.034;3.744;2022-08-16T09:31:10;10.83;;;5.90;;
21624;SDS011;10974;51.034;3.744;2022-08-16T09:33:37;7.10;;;5.73;;
21624;SDS011;10974;51.034;3.744;2022-08-16T09:36:03;4.80;;;4.40;;
21624;SDS011;10974;51.034;3.744;2022-08-16T09:38:29;7.27;;;4.40;;
21624;SDS011;10974;51.034;3.744;2022-08-16T09:40:55;5.50;;;4.43;;
21624;SDS011;10974;51.034;3.744;2022-08-16T09:43:22;4.70;;;3.60;;
21624;SDS011;10974;51.034;3.744;2022-08-16T09:45:49;3.80;;;3.50;;
21624;SDS011;10974;51.034;3.744;2022-08-16T09:48:14;4.33;;;3.40;;
21624;SDS011;10974;51.034;3.744;2022-08-16T09:50:41;4.57;;;3.70;;
21624;SDS011;10974;51.034;3.744;2022-08-16T09:53:09;3.80;;;3.40;;
21624;SDS011;10974;51.034;3.744;2022-08-16T09:55:40;4.50;;;4.10;;
21624;SDS011;10974;51.034;3.744;2022-08-16T09:58:11;4.00;;;3.70;;
21624;SDS011;10974;51.034;3.744;2022-08-16T10:00:37;5.07;;;3.43;;
21624;SDS011;10974;51.034;3.744;2022-08-16T10:03:03;3.97;;;3.67;;
21624;SDS011;10974;51.034;3.744;2022-08-16T10:05:30;4.23;;;3.30;;
21624;SDS011;10974;51.034;3.744;2022-08-16T10:08:02;4.20;;;3.43;;
21624;SDS011;10974;51.034;3.744;2022-08-16T10:10:29;5.23;;;3.20;;
21624;SDS011;10974;51.034;3.744;2022-08-16T10:12:55;2.87;;;2.67;;
21624;SDS011;10974;51.034;3.744;2022-08-16T10:15:36;2.77;;;2.50;;
21624;SDS011;10974;51.034;3.744;2022-08-16T10:18:05;2.90;;;2.70;;
21624;SDS011;10974;51.034;3.744;2022-08-16T10:20:34;3.17;;;2.90;;
21624;SDS011;10974;51.034;3.744;2022-08-16T10:23:05;3.70;;;3.00;;
21624;SDS011;10974;51.034;3.744;2022-08-16T10:25:34;2.90;;;2.70;;
21624;SDS011;10974;51.034;3.744;2022-08-16T10:28:01;2.27;;;2.17;;
21624;SDS011;10974;51.034;3.744;2022-08-16T10:30:26;2.80;;;2.60;;
21624;SDS011;10974;51.034;3.744;2022-08-16T10:32:52;2.43;;;2.23;;
21624;SDS011;10974;51.034;3.744;2022-08-16T10:35:18;5.00;;;3.93;;
21624;SDS011;10974;51.034;3.744;2022-08-16T10:37:44;6.07;;;3.73;;
21624;SDS011;10974;51.034;3.744;2022-08-16T10:40:10;6.47;;;3.90;;
21624;SDS011;10974;51.034;3.744;2022-08-16T10:42:36;4.30;;;3.80;;
21624;SDS011;10974;51.034;3.744;2022-08-16T10:45:02;2.80;;;2.60;;
21624;SDS011;10974;51.034;3.744;2022-08-16T10:47:28;3.47;;;2.57;;
21624;SDS011;10974;51.034;3.744;2022-08-16T10:49:54;3.30;;;2.90;;
21624;SDS011;10974;51.034;3.744;2022-08-16T10:52:21;5.20;;;4.00;;
21624;SDS011;10974;51.034;3.744;2022-08-16T10:54:47;5.43;;;3.57;;
21624;SDS011;10974;51.034;3.744;2022-08-16T10:57:13;7.63;;;3.97;;
21624;SDS011;10974;51.034;3.744;2022-08-16T10:59:39;4.47;;;3.23;;
21624;SDS011;10974;51.034;3.744;2022-08-16T11:02:05;5.83;;;3.20;;
21624;SDS011;10974;51.034;3.744;2022-08-16T11:04:33;2.20;;;2.10;;
21624;SDS011;10974;51.034;3.744;2022-08-16T11:06:58;3.70;;;2.90;;
21624;SDS011;10974;51.034;3.744;2022-08-16T11:09:24;4.40;;;3.20;;
21624;SDS011;10974;51.034;3.744;2022-08-16T11:11:50;6.00;;;3.70;;
21624;SDS011;10974;51.034;3.744;2022-08-16T11:14:16;7.20;;;3.33;;
21624;SDS011;10974;51.034;3.744;2022-08-16T11:16:42;4.37;;;3.33;;
21624;SDS011;10974;51.034;3.744;2022-08-16T11:19:08;3.20;;;2.90;;
21624;SDS011;10974;51.034;3.744;2022-08-16T11:21:34;3.60;;;3.30;;
21624;SDS011;10974;51.034;3.744;2022-08-16T11:24:01;6.83;;;3.63;;
21624;SDS011;10974;51.034;3.744;2022-08-16T11:26:27;8.90;;;4.47;;
21624;SDS011;10974;51.034;3.744;2022-08-16T11:28:54;3.80;;;2.10;;
21624;SDS011;10974;51.034;3.744;2022-08-16T11:31:21;2.07;;;1.97;;
21624;SDS011;10974;51.034;3.744;2022-08-16T11:33:48;2.20;;;1.73;;
21624;SDS011;10974;51.034;3.744;2022-08-16T11:36:14;4.33;;;2.70;;
21624;SDS011;10974;51.034;3.744;2022-08-16T11:38:40;4.20;;;3.80;;
21624;SDS011;10974;51.034;3.744;2022-08-16T11:41:06;3.27;;;3.00;;
21624;SDS011;10974;51.034;3.744;2022-08-16T11:43:34;3.40;;;3.10;;
21624;SDS011;10974;51.034;3.744;2022-08-16T11:46:04;2.90;;;2.67;;
21624;SDS011;10974;51.034;3.744;2022-08-16T11:48:33;3.70;;;3.40;;
21624;SDS011;10974;51.034;3.744;2022-08-16T11:51:00;3.27;;;2.97;;
21624;SDS011;10974;51.034;3.744;2022-08-16T11:53:26;5.07;;;3.23;;
21624;SDS011;10974;51.034;3.744;2022-08-16T11:55:53;6.20;;;3.80;;
21624;SDS011;10974;51.034;3.744;2022-08-16T11:58:21;8.87;;;2.87;;
21624;SDS011;10974;51.034;3.744;2022-08-16T12:00:48;2.80;;;2.60;;
21624;SDS011;10974;51.034;3.744;2022-08-16T12:03:14;5.70;;;2.90;;
21624;SDS011;10974;51.034;3.744;2022-08-16T12:05:40;4.77;;;3.13;;
21624;SDS011;10974;51.034;3.744;2022-08-16T12:08:08;3.20;;;2.90;;
21624;SDS011;10974;51.034;3.744;2022-08-16T12:10:35;2.90;;;2.70;;
21624;SDS011;10974;51.034;3.744;2022-08-16T12:13:03;3.30;;;3.00;;
21624;SDS011;10974;51.034;3.744;2022-08-16T12:15:29;2.90;;;2.50;;
21624;SDS011;10974;51.034;3.744;2022-08-16T12:17:55;3.13;;;2.30;;
21624;SDS011;10974;51.034;3.744;2022-08-16T12:20:23;2.43;;;2.23;;
21624;SDS011;10974;51.034;3.744;2022-08-16T12:22:52;2.13;;;2.03;;
21624;SDS011;10974;51.034;3.744;2022-08-16T12:25:19;2.80;;;2.60;;
21624;SDS011;10974;51.034;3.744;2022-08-16T12:27:47;2.50;;;2.30;;
21624;SDS011;10974;51.034;3.744;2022-08-16T12:30:15;2.20;;;2.10;;
21624;SDS011;10974;51.034;3.744;2022-08-16T12:32:47;2.30;;;2.10;;
21624;SDS011;10974;51.034;3.744;2022-08-16T12:35:15;2.30;;;2.10;;
21624;SDS011;10974;51.034;3.744;2022-08-16T12:37:43;1.90;;;1.80;;
21624;SDS011;10974;51.034;3.744;2022-08-16T12:40:10;2.00;;;1.80;;
21624;SDS011;10974;51.034;3.744;2022-08-16T12:42:39;2.60;;;2.20;;
21624;SDS011;10974;51.034;3.744;2022-08-16T12:45:07;2.37;;;2.17;;
21624;SDS011;10974;51.034;3.744;2022-08-16T12:47:35;3.67;;;2.73;;
21624;SDS011;10974;51.034;3.744;2022-08-16T12:50:40;2.97;;;2.67;;
21624;SDS011;10974;51.034;3.744;2022-08-16T12:53:05;2.87;;;2.00;;
21624;SDS011;10974;51.034;3.744;2022-08-16T12:55:31;2.60;;;2.40;;
21624;SDS011;10974;51.034;3.744;2022-08-16T12:57:57;6.80;;;3.00;;
21624;SDS011;10974;51.034;3.744;2022-08-16T13:00:24;8.13;;;2.50;;
21624;SDS011;10974;51.034;3.744;2022-08-16T13:02:54;2.60;;;2.40;;
21624;SDS011;10974;51.034;3.744;2022-08-16T13:05:20;2.80;;;2.50;;
21624;SDS011;10974;51.034;3.744;2022-08-16T13:07:46;26.53;;;7.10;;
21624;SDS011;10974;51.034;3.744;2022-08-16T13:10:12;3.20;;;2.57;;
21624;SDS011;10974;51.034;3.744;2022-08-16T13:12:44;2.90;;;2.70;;
21624;SDS011;10974;51.034;3.744;2022-08-16T13:15:23;4.13;;;3.03;;
21624;SDS011;10974;51.034;3.744;2022-08-16T13:17:51;2.80;;;2.60;;
21624;SDS011;10974;51.034;3.744;2022-08-16T13:20:18;2.90;;;2.70;;
21624;SDS011;10974;51.034;3.744;2022-08-16T13:22:47;2.83;;;2.60;;
21624;SDS011;10974;51.034;3.744;2022-08-16T13:25:19;4.30;;;2.47;;
21624;SDS011;10974;51.034;3.744;2022-08-16T13:27:46;3.17;;;2.47;;
21624;SDS011;10974;51.034;3.744;2022-08-16T13:30:13;3.23;;;2.93;;
21624;SDS011;10974;51.034;3.744;2022-08-16T13:32:39;3.83;;;2.40;;
21624;SDS011;10974;51.034;3.744;2022-08-16T13:35:04;2.27;;;2.07;;
21624;SDS011;10974;51.034;3.744;2022-08-16T13:37:30;2.47;;;2.27;;
21624;SDS011;10974;51.034;3.744;2022-08-16T13:39:56;3.77;;;2.73;;
21624;SDS011;10974;51.034;3.744;2022-08-16T13:42:22;3.17;;;2.87;;
21624;SDS011;10974;51.034;3.744;2022-08-16T13:44:49;4.63;;;2.70;;
21624;SDS011;10974;51.034;3.744;2022-08-16T13:47:15;3.20;;;2.50;;
21624;SDS011;10974;51.034;3.744;2022-08-16T13:49:41;2.73;;;2.53;;
21624;SDS011;10974;51.034;3.744;2022-08-16T13:52:08;2.20;;;2.10;;
21624;SDS011;10974;51.034;3.744;2022-08-16T13:54:35;2.30;;;2.10;;
21624;SDS011;10974;51.034;3.744;2022-08-16T13:57:01;2.03;;;1.93;;
21624;SDS011;10974;51.034;3.744;2022-08-16T13:59:26;2.10;;;2.00;;
21624;SDS011;10974;51.034;3.744;2022-08-16T14:01:53;2.13;;;2.03;;
21624;SDS011;10974;51.034;3.744;2022-08-16T14:04:20;3.37;;;2.30;;
21624;SDS011;10974;51.034;3.744;2022-08-16T14:06:46;2.00;;;1.90;;
21624;SDS011;10974;51.034;3.744;2022-08-16T14:09:11;2.23;;;2.13;;
21624;SDS011;10974;51.034;3.744;2022-08-16T14:11:37;2.03;;;1.93;;
21624;SDS011;10974;51.034;3.744;2022-08-16T14:14:03;2.10;;;2.00;;
21624;SDS011;10974;51.034;3.744;2022-08-16T14:16:29;2.63;;;1.93;;
21624;SDS011;10974;51.034;3.744;2022-08-16T14:18:55;2.90;;;2.10;;
21624;SDS011;10974;51.034;3.744;2022-08-16T14:21:21;2.10;;;2.00;;
21624;SDS011;10974;51.034;3.744;2022-08-16T14:23:47;2.63;;;2.43;;
21624;SDS011;10974;51.034;3.744;2022-08-16T14:26:13;2.60;;;2.40;;
21624;SDS011;10974;51.034;3.744;2022-08-16T14:28:39;2.13;;;2.03;;
21624;SDS011;10974;51.034;3.744;2022-08-16T14:31:04;2.23;;;2.10;;
21624;SDS011;10974;51.034;3.744;2022-08-16T14:33:30;2.60;;;2.40;;